Terminal Aerodrome Forecast
Issued by NWS Wilmington, OH

Current Version | Previous Version | Graphics & Text | Print | Product List | Glossary On
Versions: 1 2 3 4 5 6 7 8 9 10 11 12 13 14 15 16 17 18 19 20 21 22 23 24
000
FTUS41 KILN 211124
TAFDAY
TAF
KDAY 211124Z 2112/2212 27012KT 4SM -TSRA SCT015 OVC025CB
      TEMPO 2112/2114 27020G35KT 2SM +TSRA OVC015CB
     FM211500 34009KT P6SM -SHRA BKN035
     FM211700 35006KT P6SM BKN035
     FM220300 19005KT P6SM SCT050
     FM220900 20007KT P6SM -SHRA VCTS BKN040CB=

USA.gov is the U.S. government's official web portal to all federal, state and local government web resources and services.